Time;durP1;ratioP1;P1;durP2;ratioP2;P2;SDS_P1;SDS_P2;PMS_P1;PMS_P2;Temp;Humidity;BMP_temperature;BMP_pressure;BME280_temperature;BME280_humidity;BME280_pressure;Samples;Min_cycle;Max_cycle;Signal;HPM_P1;HPM_P2
2021/09/08 00:01:49;;;;;;;12.53;11.33;;;16.20;99.90;;;;;;5025005;28;20187;-82
2021/09/08 00:04:15;;;;;;;17.77;12.13;;;15.80;99.90;;;;;;5008787;28;20194;-82
2021/09/08 00:06:40;;;;;;;12.63;11.33;;;15.90;99.90;;;;;;5007736;28;20210;-82
2021/09/08 00:09:06;;;;;;;11.70;10.50;;;15.90;99.90;;;;;;5006411;28;20694;-82
2021/09/08 00:11:32;;;;;;;12.50;11.20;;;15.90;99.90;;;;;;5008697;28;20293;-82
2021/09/08 00:13:57;;;;;;;13.80;12.10;;;16.20;99.90;;;;;;5009015;28;20187;-82
2021/09/08 00:16:23;;;;;;;12.53;11.23;;;15.80;99.90;;;;;;5014243;28;20305;-82
2021/09/08 00:18:48;;;;;;;14.30;11.73;;;16.10;99.90;;;;;;5012081;28;20190;-82
2021/09/08 00:21:14;;;;;;;12.90;11.63;;;15.90;99.90;;;;;;5007509;28;20217;-82
2021/09/08 00:23:39;;;;;;;13.10;11.80;;;16.20;99.90;;;;;;5007703;28;20191;-82
2021/09/08 00:26:05;;;;;;;12.43;10.90;;;16.40;99.90;;;;;;5010000;28;20566;-82
2021/09/08 00:28:31;;;;;;;13.07;11.60;;;15.90;99.90;;;;;;5011296;28;20256;-82
2021/09/08 00:30:56;;;;;;;12.70;11.40;;;16.50;99.90;;;;;;5016099;28;20206;-82
2021/09/08 00:33:22;;;;;;;12.67;11.47;;;15.80;99.90;;;;;;5015279;28;20229;-82
2021/09/08 00:35:48;;;;;;;13.83;12.53;;;16.00;99.90;;;;;;5014459;28;20186;-82
2021/09/08 00:38:14;;;;;;;14.52;12.43;;;15.90;99.90;;;;;;5015328;28;20265;-81
2021/09/08 00:40:40;;;;;;;13.33;11.50;;;15.60;99.90;;;;;;5021724;28;20556;-80
2021/09/08 00:43:06;;;;;;;14.10;12.70;;;16.00;99.90;;;;;;5017256;28;20197;-81
2021/09/08 00:45:31;;;;;;;13.50;12.07;;;15.40;99.90;;;;;;5016720;28;20206;-81
2021/09/08 00:47:57;;;;;;;12.60;11.40;;;15.80;99.90;;;;;;5012762;28;20233;-81
2021/09/08 00:50:23;;;;;;;13.50;12.10;;;15.50;99.90;;;;;;5018853;28;20221;-82
2021/09/08 00:52:50;;;;;;;13.02;11.73;;;15.30;99.90;;;;;;5020440;28;20185;-82
2021/09/08 00:55:19;;;;;;;13.30;11.13;;;15.50;99.90;;;;;;5018809;28;20249;-81
2021/09/08 00:57:45;;;;;;;13.93;12.30;;;15.70;99.90;;;;;;5018537;28;20278;-83
2021/09/08 01:00:11;;;;;;;13.13;11.90;;;15.30;99.90;;;;;;5012548;28;20667;-82
2021/09/08 01:02:42;;;;;;;12.80;11.60;;;15.70;99.90;;;;;;5016518;28;20179;-82
2021/09/08 01:05:09;;;;;;;13.38;11.98;;;15.30;99.90;;;;;;5014873;28;20874;-82
2021/09/08 01:07:34;;;;;;;13.90;12.50;;;15.70;99.90;;;;;;5014858;28;20178;-81
2021/09/08 01:10:00;;;;;;;12.53;11.17;;;15.70;99.90;;;;;;5014301;28;20210;-82
2021/09/08 01:12:25;;;;;;;12.40;11.20;;;15.40;99.90;;;;;;5026286;28;20201;-82
2021/09/08 01:14:51;;;;;;;13.53;12.13;;;15.30;99.90;;;;;;5015088;28;20183;-81
2021/09/08 01:17:20;;;;;;;14.10;12.60;;;15.30;99.90;;;;;;5011006;28;20183;-80
2021/09/08 01:19:46;;;;;;;11.82;10.43;;;15.50;99.90;;;;;;5021978;28;20337;-81
2021/09/08 01:22:11;;;;;;;12.40;10.93;;;16.00;99.90;;;;;;5021325;28;20261;-81
2021/09/08 01:24:40;;;;;;;12.60;11.40;;;15.00;99.90;;;;;;5030355;28;20181;-82
2021/09/08 01:27:06;;;;;;;13.00;11.70;;;15.40;99.90;;;;;;5012353;28;20234;-82
2021/09/08 01:29:32;;;;;;;12.90;11.60;;;15.20;99.90;;;;;;5015003;28;20190;-81
2021/09/08 01:31:59;;;;;;;14.70;12.60;;;15.30;99.90;;;;;;5016384;28;20559;-82
2021/09/08 01:34:26;;;;;;;13.65;12.20;;;15.40;99.90;;;;;;5016463;28;20179;-81
2021/09/08 01:36:53;;;;;;;13.18;11.90;;;15.70;99.90;;;;;;5009653;28;20600;-81
2021/09/08 01:39:19;;;;;;;12.88;11.65;;;14.90;99.90;;;;;;5030936;28;21427;-81
2021/09/08 01:41:49;;;;;;;14.45;12.30;;;15.30;99.90;;;;;;5014656;28;20577;-81
2021/09/08 01:44:20;;;;;;;14.10;12.70;;;14.90;99.90;;;;;;5014152;28;20567;-81
2021/09/08 01:46:46;;;;;;;13.38;12.07;;;14.90;99.90;;;;;;5017690;28;20214;-81
2021/09/08 01:49:12;;;;;;;16.85;12.40;;;15.20;99.90;;;;;;5011380;28;20229;-81
2021/09/08 01:51:38;;;;;;;13.37;11.97;;;14.90;99.90;;;;;;5007534;28;20187;-81
2021/09/08 01:54:03;;;;;;;13.43;12.17;;;15.20;99.90;;;;;;5011597;28;20186;-81
2021/09/08 01:56:29;;;;;;;14.10;11.90;;;15.30;99.90;;;;;;5017606;28;20183;-81
2021/09/08 01:58:54;;;;;;;12.93;11.63;;;15.20;99.90;;;;;;5008699;28;20179;-82
2021/09/08 02:01:23;;;;;;;16.30;12.30;;;15.20;99.90;;;;;;5010071;28;20242;-82
2021/09/08 02:03:48;;;;;;;13.32;11.93;;;14.70;99.90;;;;;;5012556;28;20670;-82
2021/09/08 02:06:47;;;;;;;13.07;11.67;;;15.00;99.90;;;;;;5008122;28;20219;-82
2021/09/08 02:09:12;;;;;;;13.30;11.90;;;14.70;99.90;;;;;;4996171;28;20203;-82
2021/09/08 02:11:39;;;;;;;13.77;12.37;;;14.60;99.90;;;;;;5011673;28;20183;-81
2021/09/08 02:14:04;;;;;;;12.63;11.35;;;14.50;99.90;;;;;;5026828;28;20187;-81
2021/09/08 02:16:30;;;;;;;13.97;12.43;;;15.10;99.90;;;;;;5026631;28;20529;-81
2021/09/08 02:18:55;;;;;;;15.27;13.63;;;14.50;99.90;;;;;;5010736;28;20183;-81
2021/09/08 02:21:21;;;;;;;14.53;12.90;;;14.50;99.90;;;;;;5007662;28;20209;-80
2021/09/08 02:23:47;;;;;;;14.53;12.90;;;14.70;99.90;;;;;;5014577;28;20270;-80
2021/09/08 02:26:13;;;;;;;14.20;12.65;;;14.40;99.90;;;;;;5012567;28;20210;-81
2021/09/08 02:28:39;;;;;;;14.00;12.60;;;14.80;99.90;;;;;;5008631;28;20183;-81
2021/09/08 02:31:06;;;;;;;13.13;11.75;;;14.50;99.90;;;;;;5016448;28;20544;-80
2021/09/08 02:33:31;;;;;;;13.70;12.20;;;14.30;99.90;;;;;;5004424;28;20194;-80
2021/09/08 02:35:57;;;;;;;13.70;12.40;;;14.50;99.90;;;;;;5010049;28;20183;-81
2021/09/08 02:38:22;;;;;;;13.27;12.00;;;14.60;99.90;;;;;;5010415;28;20194;-80
2021/09/08 02:40:48;;;;;;;14.83;13.30;;;14.90;99.90;;;;;;5012871;28;20213;-80
2021/09/08 02:43:14;;;;;;;14.53;13.07;;;14.80;99.90;;;;;;5012076;28;20248;-80
2021/09/08 02:45:39;;;;;;;14.30;12.80;;;14.70;99.90;;;;;;5014586;28;20217;-80
2021/09/08 02:48:05;;;;;;;14.13;12.50;;;14.60;99.90;;;;;;5014965;28;20942;-80
2021/09/08 02:50:30;;;;;;;14.63;13.23;;;14.60;99.90;;;;;;5014698;28;20203;-81
2021/09/08 02:52:56;;;;;;;15.30;13.70;;;14.60;99.90;;;;;;5005389;28;20206;-82
2021/09/08 02:55:21;;;;;;;14.07;12.43;;;14.30;99.90;;;;;;5010814;28;20183;-81
2021/09/08 02:57:47;;;;;;;14.33;12.97;;;14.20;99.90;;;;;;5008584;28;20282;-81
2021/09/08 03:00:13;;;;;;;14.70;13.20;;;14.10;99.90;;;;;;5008359;28;20202;-81
2021/09/08 03:02:39;;;;;;;14.93;13.40;;;14.50;99.90;;;;;;5011700;28;20199;-81
2021/09/08 03:05:05;;;;;;;14.03;12.53;;;14.20;99.90;;;;;;5010553;28;20712;-81
2021/09/08 03:07:30;;;;;;;16.02;14.43;;;14.50;99.90;;;;;;5000931;28;20186;-81
2021/09/08 03:09:56;;;;;;;14.53;13.03;;;14.30;99.90;;;;;;5010051;28;20572;-81
2021/09/08 03:12:22;;;;;;;14.07;12.77;;;13.80;99.90;;;;;;5007126;28;20183;-81
2021/09/08 03:14:47;;;;;;;14.40;12.90;;;13.90;99.90;;;;;;5009897;28;20558;-81
2021/09/08 03:17:13;;;;;;;16.57;14.87;;;14.10;99.90;;;;;;5008424;28;20195;-81
2021/09/08 03:19:39;;;;;;;15.20;13.70;;;13.80;99.90;;;;;;5007365;28;20206;-81
2021/09/08 03:22:04;;;;;;;15.37;12.60;;;13.80;99.90;;;;;;5006344;28;20194;-81
2021/09/08 03:24:30;;;;;;;15.20;13.37;;;14.30;99.90;;;;;;5017674;28;20193;-81
2021/09/08 03:26:55;;;;;;;14.67;13.27;;;14.00;99.90;;;;;;5007623;28;20213;-81
2021/09/08 03:29:21;;;;;;;15.70;13.10;;;14.60;99.90;;;;;;5009659;28;20183;-82
2021/09/08 03:31:47;;;;;;;15.10;13.50;;;14.30;99.90;;;;;;5016467;28;20237;-81
2021/09/08 03:34:12;;;;;;;14.83;13.33;;;13.80;99.90;;;;;;5014807;28;20195;-80
2021/09/08 03:36:38;;;;;;;16.20;13.47;;;13.90;99.90;;;;;;5015731;28;20441;-81
2021/09/08 03:39:04;;;;;;;15.03;13.53;;;14.30;99.90;;;;;;5009947;28;20197;-80
2021/09/08 03:41:30;;;;;;;14.63;13.13;;;14.30;99.90;;;;;;5008719;28;20211;-81
2021/09/08 03:43:55;;;;;;;14.33;12.93;;;14.00;99.90;;;;;;5008734;28;20473;-81
2021/09/08 03:46:21;;;;;;;16.47;14.87;;;14.00;99.90;;;;;;5011418;28;20296;-81
2021/09/08 03:48:46;;;;;;;15.87;14.20;;;14.20;99.90;;;;;;5011997;28;20326;-80
2021/09/08 03:51:12;;;;;;;15.33;13.33;;;14.20;99.90;;;;;;5008385;28;20217;-81
2021/09/08 03:53:38;;;;;;;15.20;13.60;;;14.30;99.90;;;;;;5010888;28;20194;-81
2021/09/08 03:56:04;;;;;;;17.30;14.47;;;13.90;99.90;;;;;;5008227;28;20194;-81
2021/09/08 03:58:29;;;;;;;19.25;17.27;;;14.20;99.90;;;;;;5007988;28;20191;-81
2021/09/08 04:00:55;;;;;;;19.20;13.93;;;14.10;99.90;;;;;;5007851;28;20210;-81
2021/09/08 04:03:20;;;;;;;15.97;14.30;;;14.20;99.90;;;;;;5009561;28;20190;-81
2021/09/08 04:05:46;;;;;;;15.77;14.23;;;13.80;99.90;;;;;;5012123;28;20225;-82
2021/09/08 04:08:11;;;;;;;18.27;14.47;;;14.10;99.90;;;;;;5008930;28;20179;-81
2021/09/08 04:10:37;;;;;;;16.73;14.27;;;13.60;99.90;;;;;;5013593;28;20593;-81
2021/09/08 04:13:03;;;;;;;14.90;13.50;;;14.50;99.90;;;;;;5008209;28;20647;-81
2021/09/08 04:15:29;;;;;;;20.40;14.30;;;14.00;99.90;;;;;;5009644;28;20515;-81
2021/09/08 04:17:55;;;;;;;17.17;15.10;;;14.00;99.90;;;;;;5008691;28;20442;-81
2021/09/08 04:20:20;;;;;;;15.47;13.60;;;13.70;99.90;;;;;;5005331;28;20718;-81
2021/09/08 04:22:46;;;;;;;14.47;12.97;;;14.10;99.90;;;;;;5008836;28;20198;-81
2021/09/08 04:25:12;;;;;;;15.70;13.57;;;13.90;99.90;;;;;;5012361;28;20183;-81
2021/09/08 04:27:38;;;;;;;17.20;13.80;;;14.00;99.90;;;;;;5009877;28;20186;-81
2021/09/08 04:30:05;;;;;;;15.43;13.95;;;13.70;99.90;;;;;;5017206;28;20209;-81
2021/09/08 04:32:30;;;;;;;16.67;14.98;;;14.10;99.90;;;;;;5008364;28;20194;-81
2021/09/08 04:34:56;;;;;;;15.23;13.50;;;13.50;99.90;;;;;;5016368;28;20236;-81
2021/09/08 04:37:22;;;;;;;18.13;16.23;;;13.90;99.90;;;;;;5011286;28;20635;-81
2021/09/08 04:39:47;;;;;;;15.60;14.10;;;13.80;99.90;;;;;;5015030;28;20564;-80
2021/09/08 04:42:13;;;;;;;15.07;13.57;;;14.10;99.90;;;;;;5008236;28;20191;-81
2021/09/08 04:44:38;;;;;;;14.90;13.40;;;13.70;99.90;;;;;;5006423;28;20221;-81
2021/09/08 04:47:04;;;;;;;18.67;15.37;;;13.80;99.90;;;;;;5014018;28;20240;-82
2021/09/08 04:49:30;;;;;;;15.63;14.03;;;14.10;99.90;;;;;;5008390;28;20647;-81
2021/09/08 04:51:55;;;;;;;16.43;14.73;;;13.50;99.90;;;;;;5008204;28;20175;-81
2021/09/08 04:54:21;;;;;;;17.10;14.90;;;13.70;99.90;;;;;;5010105;28;20550;-81
2021/09/08 04:56:46;;;;;;;15.27;13.67;;;13.70;99.90;;;;;;5009902;28;20677;-81
2021/09/08 04:59:12;;;;;;;16.70;14.87;;;14.10;99.90;;;;;;5009331;28;20553;-81
2021/09/08 05:01:37;;;;;;;17.47;15.57;;;13.90;99.90;;;;;;5005586;28;20671;-81
2021/09/08 05:04:03;;;;;;;17.00;15.20;;;13.90;99.90;;;;;;5013203;28;20552;-80
2021/09/08 05:06:29;;;;;;;16.43;14.57;;;14.00;99.90;;;;;;5004418;28;20217;-81
2021/09/08 05:08:55;;;;;;;17.00;15.20;;;13.90;99.90;;;;;;5016965;28;20590;-80
2021/09/08 05:11:20;;;;;;;15.68;14.18;;;13.50;99.90;;;;;;5009949;28;20199;-81
2021/09/08 05:13:46;;;;;;;16.00;14.40;;;13.50;99.90;;;;;;5007881;28;20189;-80
2021/09/08 05:16:12;;;;;;;16.07;14.37;;;13.40;99.90;;;;;;5009447;28;20191;-81
2021/09/08 05:18:37;;;;;;;17.87;15.43;;;13.90;99.90;;;;;;5012104;28;20293;-81
2021/09/08 05:21:03;;;;;;;17.80;14.40;;;14.30;99.90;;;;;;5006205;28;20203;-80
2021/09/08 05:23:29;;;;;;;18.05;15.05;;;14.40;99.90;;;;;;5013713;28;20193;-80
2021/09/08 05:25:54;;;;;;;16.60;14.90;;;13.40;99.90;;;;;;5013753;28;20289;-80
2021/09/08 05:28:20;;;;;;;16.83;15.03;;;13.90;99.90;;;;;;5006182;28;20190;-81
2021/09/08 05:30:46;;;;;;;17.67;15.87;;;13.50;99.90;;;;;;5005422;28;20695;-81
2021/09/08 05:33:12;;;;;;;16.87;15.03;;;13.50;99.90;;;;;;5013813;28;20953;-81
2021/09/08 05:35:52;;;;;;;17.23;15.32;;;13.40;99.90;;;;;;5057106;28;20600;-51
2021/09/08 05:38:20;;;;;;;17.40;15.60;;;14.00;99.90;;;;;;5045322;28;20233;-51
2021/09/08 05:40:46;;;;;;;18.23;16.33;;;14.10;99.90;;;;;;5041122;28;20236;-51
2021/09/08 05:43:11;;;;;;;16.37;14.47;;;13.90;99.90;;;;;;5041935;28;20800;-49
2021/09/08 05:45:37;;;;;;;20.20;15.37;;;14.00;99.90;;;;;;5043721;28;20193;-48
2021/09/08 05:48:03;;;;;;;16.63;14.93;;;14.20;99.90;;;;;;5043343;28;20227;-49
2021/09/08 05:50:28;;;;;;;16.40;14.70;;;14.10;99.90;;;;;;5040012;28;20182;-49
2021/09/08 05:52:54;;;;;;;15.87;14.13;;;14.40;99.90;;;;;;5040782;28;20208;-49
2021/09/08 05:55:19;;;;;;;17.00;15.20;;;14.30;99.90;;;;;;5038117;28;20464;-50
2021/09/08 05:57:45;;;;;;;18.30;14.70;;;14.20;99.90;;;;;;5034477;28;20202;-50
2021/09/08 06:00:11;;;;;;;16.50;14.77;;;14.30;99.90;;;;;;5036172;28;20177;-50
2021/09/08 06:02:37;;;;;;;16.88;15.18;;;14.50;99.90;;;;;;5039858;28;20277;-49
2021/09/08 06:05:03;;;;;;;18.10;15.37;;;14.40;99.90;;;;;;5041561;28;20426;-50
2021/09/08 06:07:29;;;;;;;17.20;15.00;;;14.70;99.90;;;;;;5042972;28;20479;-52
2021/09/08 06:09:54;;;;;;;16.00;14.03;;;14.70;99.90;;;;;;5037256;28;20480;-51
2021/09/08 06:12:20;;;;;;;17.07;15.37;;;14.60;99.90;;;;;;5034711;28;20245;-51
2021/09/08 06:14:45;;;;;;;16.17;14.57;;;14.70;99.90;;;;;;5043093;28;20209;-50
2021/09/08 06:17:11;;;;;;;15.80;14.10;;;14.70;99.90;;;;;;5046454;28;20555;-50
2021/09/08 06:19:37;;;;;;;17.17;14.27;;;14.70;99.90;;;;;;5044571;28;20185;-51
2021/09/08 06:22:03;;;;;;;18.63;15.30;;;15.00;99.90;;;;;;5050851;28;20297;-51
2021/09/08 06:24:29;;;;;;;16.48;14.43;;;15.10;99.90;;;;;;5046928;28;20194;-51
2021/09/08 06:26:55;;;;;;;17.17;14.37;;;15.00;99.90;;;;;;5042786;28;20242;-53
2021/09/08 06:29:20;;;;;;;16.60;14.90;;;15.20;99.90;;;;;;5039092;28;20282;-51
2021/09/08 06:31:46;;;;;;;17.03;15.30;;;15.40;99.90;;;;;;5046327;28;20559;-51
2021/09/08 06:34:11;;;;;;;16.37;14.67;;;15.30;99.90;;;;;;5039327;28;20216;-51
2021/09/08 06:36:37;;;;;;;16.70;15.00;;;15.70;99.90;;;;;;5051014;28;20687;-51
2021/09/08 06:39:03;;;;;;;14.10;12.63;;;15.70;99.90;;;;;;5041453;28;20190;-51
2021/09/08 06:41:29;;;;;;;16.20;14.50;;;16.00;99.90;;;;;;5051591;28;20182;-51
2021/09/08 06:43:54;;;;;;;18.87;15.30;;;16.20;99.90;;;;;;5034014;28;20439;-52
2021/09/08 06:46:20;;;;;;;16.27;14.67;;;16.30;99.90;;;;;;5031230;28;20623;-51
2021/09/08 06:48:46;;;;;;;15.53;13.90;;;16.20;99.90;;;;;;5024916;28;20194;-52
2021/09/08 06:51:11;;;;;;;15.83;14.23;;;16.50;99.90;;;;;;5023643;28;20198;-49
2021/09/08 06:53:38;;;;;;;16.43;14.73;;;16.90;99.90;;;;;;5028548;28;20182;-50
2021/09/08 06:56:05;;;;;;;17.50;15.70;;;17.00;99.90;;;;;;5028324;28;20964;-50
2021/09/08 06:58:30;;;;;;;16.25;14.23;;;17.00;99.90;;;;;;5024322;28;20210;-50
2021/09/08 07:00:56;;;;;;;15.53;13.93;;;17.10;99.90;;;;;;5024670;28;20182;-51
2021/09/08 07:03:22;;;;;;;15.20;13.70;;;17.80;99.90;;;;;;5031124;28;20178;-50
2021/09/08 07:05:47;;;;;;;17.83;14.10;;;19.70;99.90;;;;;;5032930;28;20190;-50
2021/09/08 07:08:14;;;;;;;13.87;12.57;;;21.80;99.60;;;;;;5033734;28;20206;-50
2021/09/08 07:10:40;;;;;;;13.67;12.37;;;24.00;95.70;;;;;;5027070;28;20185;-50
2021/09/08 07:13:06;;;;;;;14.00;12.80;;;26.20;91.00;;;;;;5025858;28;20549;-49
2021/09/08 07:15:32;;;;;;;17.67;12.80;;;28.10;82.90;;;;;;5023147;28;20479;-51
2021/09/08 07:17:58;;;;;;;15.53;14.20;;;29.50;73.10;;;;;;5032832;28;20214;-50
2021/09/08 07:20:23;;;;;;;14.73;13.43;;;27.40;72.90;;;;;;5029259;28;20507;-50
2021/09/08 07:22:49;;;;;;;13.80;12.50;;;27.10;76.40;;;;;;5029539;28;20190;-50
2021/09/08 07:25:15;;;;;;;14.83;13.37;;;28.80;72.60;;;;;;5028076;28;20246;-51
2021/09/08 07:27:41;;;;;;;15.70;14.10;;;30.90;66.10;;;;;;5027390;28;20858;-51
2021/09/08 07:30:07;;;;;;;20.40;18.20;;;31.50;60.90;;;;;;5027433;28;20196;-51
2021/09/08 07:32:33;;;;;;;15.23;13.97;;;29.40;63.70;;;;;;5029061;28;20445;-50
2021/09/08 07:34:59;;;;;;;15.30;14.00;;;29.50;66.20;;;;;;5019373;28;20465;-50
2021/09/08 07:37:25;;;;;;;14.97;13.67;;;31.10;60.70;;;;;;5024553;28;20210;-51
2021/09/08 07:39:51;;;;;;;13.97;12.70;;;32.10;59.00;;;;;;5021599;28;20549;-50
2021/09/08 07:42:17;;;;;;;14.53;13.10;;;33.40;56.10;;;;;;5027873;28;20946;-50
2021/09/08 07:44:43;;;;;;;13.17;11.97;;;35.00;53.20;;;;;;5024757;28;20510;-50
2021/09/08 07:47:09;;;;;;;14.30;12.87;;;36.20;50.40;;;;;;5026133;28;20324;-50
2021/09/08 07:49:36;;;;;;;15.40;14.00;;;36.90;48.20;;;;;;5021493;28;20984;-50
2021/09/08 07:52:01;;;;;;;15.83;14.40;;;37.40;46.20;;;;;;5028188;28;20441;-51
2021/09/08 07:54:27;;;;;;;13.50;12.23;;;37.50;44.70;;;;;;5031783;28;20882;-51
2021/09/08 07:56:53;;;;;;;14.70;13.50;;;37.90;44.10;;;;;;5021958;28;20267;-51
2021/09/08 07:59:19;;;;;;;14.80;13.50;;;37.90;42.80;;;;;;5027800;28;20185;-50
2021/09/08 08:01:45;;;;;;;14.43;13.23;;;37.80;43.30;;;;;;5020548;28;20445;-50
2021/09/08 08:04:10;;;;;;;14.00;12.80;;;38.00;42.40;;;;;;5030562;28;20182;-51
2021/09/08 08:06:37;;;;;;;15.33;14.00;;;38.00;42.20;;;;;;5029204;28;20583;-50
2021/09/08 08:09:04;;;;;;;14.03;12.90;;;37.40;42.70;;;;;;5026688;28;20524;-50
2021/09/08 08:11:29;;;;;;;13.40;12.30;;;36.70;43.00;;;;;;5029112;28;20448;-51
2021/09/08 08:13:55;;;;;;;15.53;14.13;;;36.90;42.70;;;;;;5022898;28;20928;-49
2021/09/08 08:16:20;;;;;;;13.63;12.30;;;36.00;43.10;;;;;;5015647;28;20538;-49
2021/09/08 08:18:46;;;;;;;13.77;12.47;;;35.90;43.80;;;;;;5023307;28;20198;-50
2021/09/08 08:21:12;;;;;;;13.23;12.23;;;35.80;43.20;;;;;;5017793;28;20701;-50
2021/09/08 08:23:37;;;;;;;13.23;11.87;;;36.10;43.30;;;;;;5021186;28;20233;-50
2021/09/08 08:26:06;;;;;;;11.73;10.70;;;36.80;42.50;;;;;;5026297;28;20201;-50
2021/09/08 08:28:32;;;;;;;9.90;9.10;;;37.20;41.20;;;;;;5027113;28;20202;-50
2021/09/08 08:30:59;;;;;;;11.00;10.00;;;36.70;41.70;;;;;;5029405;28;20851;-50
2021/09/08 08:33:28;;;;;;;11.40;10.23;;;36.20;40.30;;;;;;5026994;28;20190;-50
2021/09/08 08:35:54;;;;;;;10.97;9.97;;;36.10;41.70;;;;;;5032497;28;20499;-49
2021/09/08 08:38:20;;;;;;;11.90;10.80;;;35.80;42.50;;;;;;5026329;28;20469;-49
2021/09/08 08:40:46;;;;;;;10.07;9.13;;;35.30;42.70;;;;;;5029363;28;20440;-50
2021/09/08 08:43:13;;;;;;;11.03;10.13;;;34.90;43.10;;;;;;5025882;28;20499;-49
2021/09/08 08:45:39;;;;;;;9.83;8.93;;;35.40;42.70;;;;;;5028708;28;20440;-50
2021/09/08 08:48:04;;;;;;;10.37;9.57;;;34.90;41.80;;;;;;5030651;28;20530;-49
2021/09/08 08:50:30;;;;;;;10.40;9.50;;;34.20;43.10;;;;;;5030042;28;20562;-50
2021/09/08 08:52:57;;;;;;;9.50;8.70;;;33.30;45.40;;;;;;5026052;28;20190;-49
2021/09/08 08:55:24;;;;;;;9.53;8.60;;;32.30;45.10;;;;;;5028689;28;20530;-49
2021/09/08 08:57:50;;;;;;;9.73;8.93;;;31.90;45.60;;;;;;5027534;28;20934;-49
2021/09/08 09:00:20;;;;;;;9.17;8.47;;;31.10;46.80;;;;;;5029691;28;20525;-48
2021/09/08 09:02:50;;;;;;;9.50;8.60;;;30.20;48.00;;;;;;5029800;28;20193;-48
2021/09/08 09:05:35;;;;;;;9.30;8.40;;;29.40;50.10;;;;;;5026329;28;20505;-49
2021/09/08 09:08:03;;;;;;;9.17;8.27;;;28.80;51.80;;;;;;5024793;28;20466;-49
2021/09/08 09:10:29;;;;;;;8.70;7.90;;;28.00;53.50;;;;;;5030435;28;20433;-49
2021/09/08 09:12:55;;;;;;;9.90;8.50;;;27.60;54.60;;;;;;5027624;28;20968;-49
2021/09/08 09:15:23;;;;;;;8.50;7.70;;;27.10;55.00;;;;;;5033448;28;20459;-49
2021/09/08 09:17:50;;;;;;;9.33;8.43;;;26.40;56.60;;;;;;5028269;28;20498;-49
2021/09/08 09:20:17;;;;;;;9.50;7.87;;;26.10;57.80;;;;;;5028458;28;20523;-49
2021/09/08 09:22:44;;;;;;;8.60;7.80;;;26.00;58.00;;;;;;5024666;28;20438;-49
2021/09/08 09:25:12;;;;;;;8.30;7.50;;;25.90;59.00;;;;;;5023145;28;20490;-48
2021/09/08 09:27:42;;;;;;;9.10;8.20;;;26.10;58.40;;;;;;5024870;28;20478;-49
2021/09/08 09:30:10;;;;;;;7.80;7.00;;;26.20;58.80;;;;;;5029049;28;20443;-49
2021/09/08 09:32:41;;;;;;;8.63;7.73;;;26.10;58.90;;;;;;5026079;28;20486;-49
2021/09/08 09:35:09;;;;;;;8.23;7.53;;;26.00;58.80;;;;;;5028859;28;20474;-49
2021/09/08 09:37:48;;;;;;;8.67;7.87;;;26.00;59.10;;;;;;5020535;28;20986;-49
2021/09/08 09:40:15;;;;;;;9.50;8.60;;;26.00;59.00;;;;;;5020020;28;20811;-49
2021/09/08 09:42:43;;;;;;;7.80;7.10;;;26.30;59.00;;;;;;5029960;28;20452;-49
2021/09/08 09:45:10;;;;;;;8.73;8.03;;;26.70;58.50;;;;;;5027586;28;20826;-50
2021/09/08 09:47:38;;;;;;;8.17;7.37;;;27.00;57.90;;;;;;5029345;28;20468;-51
2021/09/08 09:50:09;;;;;;;8.20;7.50;;;27.40;57.00;;;;;;5021786;28;20450;-51
2021/09/08 09:52:38;;;;;;;8.93;8.10;;;27.30;57.10;;;;;;5031126;28;20532;-50
2021/09/08 09:55:06;;;;;;;8.70;7.90;;;26.80;57.60;;;;;;5029021;28;20832;-50
2021/09/08 09:57:32;;;;;;;9.03;7.80;;;26.80;57.60;;;;;;5031203;28;20467;-50
2021/09/08 09:59:58;;;;;;;9.50;8.60;;;26.80;58.10;;;;;;5031428;28;20813;-51
2021/09/08 10:02:26;;;;;;;8.83;8.10;;;26.60;58.50;;;;;;5035903;28;20441;-50
2021/09/08 10:04:52;;;;;;;9.23;8.33;;;26.50;58.50;;;;;;5034404;28;20497;-50
2021/09/08 10:07:19;;;;;;;7.97;7.30;;;26.30;59.60;;;;;;5026191;28;20873;-50
2021/09/08 10:09:51;;;;;;;8.97;8.27;;;26.10;60.90;;;;;;5034611;28;20487;-50
2021/09/08 10:12:19;;;;;;;8.83;8.03;;;25.80;60.80;;;;;;5020064;28;20449;-51
2021/09/08 10:14:46;;;;;;;9.17;8.27;;;25.80;61.40;;;;;;5033821;28;20881;-50
2021/09/08 10:17:16;;;;;;;8.30;7.50;;;25.90;61.20;;;;;;5034163;28;20793;-50
2021/09/08 10:19:42;;;;;;;8.50;7.80;;;26.00;60.90;;;;;;5027672;28;20563;-50
2021/09/08 10:22:10;;;;;;;9.87;8.40;;;26.10;61.10;;;;;;5030166;28;20447;-50
2021/09/08 10:24:42;;;;;;;8.80;7.90;;;26.10;60.60;;;;;;5032630;28;20486;-50
2021/09/08 10:27:22;;;;;;;9.40;8.60;;;25.80;62.40;;;;;;5028087;28;20466;-50
2021/09/08 10:29:51;;;;;;;8.03;7.20;;;25.60;63.80;;;;;;5033583;28;20900;-50
2021/09/08 10:32:18;;;;;;;10.30;8.13;;;25.80;63.00;;;;;;5031784;28;20474;-50
2021/09/08 10:34:44;;;;;;;9.00;8.20;;;25.70;62.90;;;;;;5029212;28;20488;-51
2021/09/08 10:37:11;;;;;;;9.00;8.30;;;25.90;62.10;;;;;;5027722;28;20468;-51
2021/09/08 10:39:39;;;;;;;8.47;7.77;;;26.00;62.70;;;;;;5031268;28;20439;-51
2021/09/08 10:42:05;;;;;;;9.00;7.50;;;26.10;62.40;;;;;;5025983;28;20445;-51
2021/09/08 10:44:50;;;;;;;8.90;8.10;;;26.10;61.70;;;;;;5038729;28;20657;-51
2021/09/08 10:47:37;;;;;;;8.47;7.70;;;26.10;62.00;;;;;;5030012;28;20265;-51
2021/09/08 10:50:06;;;;;;;8.37;7.67;;;26.00;62.90;;;;;;5027046;28;20443;-52
2021/09/08 10:52:36;;;;;;;8.03;7.33;;;26.10;62.40;;;;;;5024343;28;20442;-51
2021/09/08 10:55:01;;;;;;;9.90;8.53;;;26.00;63.00;;;;;;5030842;28;20481;-51
2021/09/08 10:57:42;;;;;;;7.87;7.17;;;26.00;63.60;;;;;;5026311;28;20458;-51
2021/09/08 11:00:13;;;;;;;8.90;8.00;;;26.00;64.30;;;;;;5023196;28;20236;-52
2021/09/08 11:02:40;;;;;;;9.43;8.43;;;26.00;64.70;;;;;;5030157;28;20435;-51
2021/09/08 11:05:07;;;;;;;8.07;7.37;;;26.10;63.40;;;;;;5023663;28;20480;-51
2021/09/08 11:07:32;;;;;;;7.93;7.13;;;26.10;62.60;;;;;;5025298;28;20941;-51
2021/09/08 11:09:58;;;;;;;8.47;7.67;;;26.20;63.50;;;;;;5025149;28;21931;-51
2021/09/08 11:12:46;;;;;;;7.40;6.80;;;26.20;62.60;;;;;;5018990;28;20196;-51
2021/09/08 11:15:13;;;;;;;8.50;7.70;;;26.20;62.30;;;;;;5021718;28;20252;-51
2021/09/08 11:17:40;;;;;;;7.87;7.17;;;26.30;61.20;;;;;;5027154;28;20466;-52
2021/09/08 11:20:07;;;;;;;7.60;6.83;;;26.30;62.10;;;;;;5023965;28;20928;-52
2021/09/08 11:22:33;;;;;;;8.37;7.67;;;26.20;61.50;;;;;;5025471;28;20439;-51
2021/09/08 11:25:13;;;;;;;7.87;7.17;;;26.20;62.20;;;;;;5030649;28;20458;-51
2021/09/08 11:27:40;;;;;;;7.90;7.20;;;26.00;62.50;;;;;;5026675;28;20212;-52
2021/09/08 11:30:10;;;;;;;8.10;7.40;;;26.10;62.40;;;;;;5028535;28;20444;-51
2021/09/08 11:32:56;;;;;;;7.97;7.10;;;26.40;62.00;;;;;;5021823;28;20473;-51
2021/09/08 11:35:41;;;;;;;8.10;7.40;;;26.70;61.10;;;;;;5023292;28;20477;-51
2021/09/08 11:38:27;;;;;;;8.30;7.60;;;26.80;61.90;;;;;;5021751;28;20949;-49
2021/09/08 11:40:55;;;;;;;8.03;7.33;;;26.80;60.40;;;;;;5033507;28;20538;-51
2021/09/08 11:43:30;;;;;;;7.93;7.13;;;26.70;60.60;;;;;;5029987;28;20921;-50
2021/09/08 11:45:55;;;;;;;8.13;7.43;;;26.70;61.50;;;;;;5030970;28;20452;-51
2021/09/08 11:48:29;;;;;;;8.20;7.40;;;26.70;60.90;;;;;;5033588;28;20470;-50
2021/09/08 11:51:05;;;;;;;8.47;7.73;;;26.70;61.00;;;;;;5034005;28;20728;-49
2021/09/08 11:53:32;;;;;;;7.47;6.83;;;26.90;61.00;;;;;;5028792;28;20479;-49
2021/09/08 11:56:19;;;;;;;8.03;7.23;;;27.20;60.10;;;;;;5029469;28;20817;-50
2021/09/08 11:58:59;;;;;;;7.83;7.03;;;27.70;60.90;;;;;;5026469;28;20437;-49
2021/09/08 12:01:30;;;;;;;7.73;7.13;;;27.80;59.40;;;;;;5030700;28;20451;-49
2021/09/08 12:03:57;;;;;;;7.17;6.57;;;27.90;58.20;;;;;;5028118;28;20907;-49
2021/09/08 12:06:28;;;;;;;7.37;6.67;;;27.90;57.60;;;;;;5030903;28;20456;-49
2021/09/08 12:09:00;;;;;;;11.00;10.10;;;28.00;58.20;;;;;;5027196;28;20441;-49
2021/09/08 12:11:45;;;;;;;7.77;7.03;;;27.70;59.00;;;;;;5028002;28;20448;-49
2021/09/08 12:14:25;;;;;;;7.20;6.50;;;27.90;57.50;;;;;;5030192;28;20622;-49
2021/09/08 12:17:00;;;;;;;7.17;6.43;;;27.80;58.00;;;;;;5028988;28;20517;-48
2021/09/08 12:19:38;;;;;;;7.17;6.43;;;27.60;58.30;;;;;;5027011;28;20444;-49
2021/09/08 12:22:14;;;;;;;7.27;6.67;;;27.60;59.00;;;;;;5027177;28;20910;-49
2021/09/08 12:24:41;;;;;;;7.30;6.70;;;27.60;59.60;;;;;;5030895;28;20440;-49
2021/09/08 12:27:27;;;;;;;7.57;6.87;;;27.60;57.90;;;;;;5022285;28;20462;-49
2021/09/08 12:29:58;;;;;;;7.07;6.30;;;27.40;57.70;;;;;;5026167;28;20528;-49
2021/09/08 12:32:41;;;;;;;6.90;6.30;;;27.40;57.20;;;;;;5029227;28;20503;-49
2021/09/08 12:35:07;;;;;;;6.43;5.93;;;27.40;57.40;;;;;;5035705;28;20507;-49